createdAt,value
2023-05-01T00:00:13.490Z,4.20
2023-05-01T00:01:13.488Z,4.10
2023-05-01T00:02:13.557Z,4.30
2023-05-01T00:03:13.643Z,4.00
2023-05-01T00:04:13.699Z,3.60
2023-05-01T00:05:13.486Z,3.70
2023-05-01T00:06:13.479Z,4.20
2023-05-01T00:07:13.448Z,3.70
2023-05-01T00:08:13.413Z,3.50
2023-05-01T00:09:13.397Z,3.80
2023-05-01T00:10:13.433Z,3.40
2023-05-01T00:11:13.385Z,3.70
2023-05-01T00:12:13.378Z,3.60
2023-05-01T00:13:13.349Z,3.50
2023-05-01T00:14:13.340Z,3.70
2023-05-01T00:15:13.344Z,3.30
2023-05-01T00:16:13.473Z,3.40
2023-05-01T00:17:13.392Z,3.60
2023-05-01T00:18:13.316Z,3.70
2023-05-01T00:19:13.321Z,3.50
2023-05-01T00:20:13.321Z,3.80
2023-05-01T00:21:13.288Z,3.70
2023-05-01T00:22:13.260Z,4.10
2023-05-01T00:23:13.248Z,3.60
2023-05-01T00:24:13.228Z,3.70
2023-05-01T00:25:13.220Z,3.50
2023-05-01T00:26:13.259Z,3.60
2023-05-01T00:27:13.230Z,3.40
2023-05-01T00:28:13.186Z,4.20
2023-05-01T00:29:13.175Z,3.60
2023-05-01T00:30:13.224Z,3.50
2023-05-01T00:31:13.188Z,3.90
2023-05-01T00:32:13.153Z,4.10
2023-05-01T00:33:13.137Z,3.80
2023-05-01T00:34:13.211Z,3.80
2023-05-01T00:35:13.119Z,4.00
2023-05-01T00:36:13.247Z,3.80
2023-05-01T00:37:13.111Z,3.50
2023-05-01T00:38:13.086Z,3.80
2023-05-01T00:39:13.069Z,4.30
2023-05-01T00:40:13.056Z,3.80
2023-05-01T00:41:13.056Z,3.70
2023-05-01T00:42:13.072Z,3.70
2023-05-01T00:43:13.059Z,4.00
2023-05-01T00:44:13.051Z,4.00
2023-05-01T00:45:13.004Z,4.10
2023-05-01T00:46:13.061Z,4.10
2023-05-01T00:47:12.983Z,4.20
2023-05-01T00:48:12.992Z,3.70
2023-05-01T00:49:12.969Z,3.90
2023-05-01T00:50:12.969Z,3.90
2023-05-01T00:51:13.051Z,3.80
2023-05-01T00:52:12.966Z,3.90
2023-05-01T00:53:12.924Z,4.20
2023-05-01T00:54:12.920Z,4.00
2023-05-01T00:55:12.904Z,3.80
2023-05-01T00:56:12.944Z,4.20
2023-05-01T00:57:12.870Z,4.00
2023-05-01T00:58:12.870Z,3.90
2023-05-01T00:59:12.853Z,3.80
2023-05-01T01:00:12.845Z,4.00
2023-05-01T01:01:12.896Z,3.90
2023-05-01T01:02:12.830Z,3.80
2023-05-01T01:03:12.814Z,4.30
2023-05-01T01:04:12.820Z,3.90
2023-05-01T01:05:12.849Z,4.00
2023-05-01T01:06:12.808Z,3.70
2023-05-01T01:07:12.813Z,4.00
2023-05-01T01:08:12.964Z,3.50
2023-05-01T01:09:12.742Z,4.30
2023-05-01T01:10:12.733Z,3.80
2023-05-01T01:11:12.719Z,4.10
2023-05-01T01:12:12.757Z,4.00
2023-05-01T01:13:12.747Z,4.30
2023-05-01T01:14:12.730Z,3.90
2023-05-01T01:15:12.681Z,3.90
2023-05-01T01:16:12.704Z,3.80
2023-05-01T01:17:12.856Z,3.80
2023-05-01T01:18:12.725Z,3.90
2023-05-01T01:19:12.636Z,4.40
2023-05-01T01:20:12.620Z,4.00
2023-05-01T01:21:12.616Z,4.00
2023-05-01T01:22:12.624Z,4.10
2023-05-01T01:23:13.091Z,3.70
2023-05-01T01:24:12.582Z,4.00
2023-05-01T01:25:12.574Z,4.10
2023-05-01T01:26:12.582Z,3.90
2023-05-01T01:27:12.728Z,4.00
2023-05-01T01:28:12.573Z,3.80
2023-05-01T01:29:12.561Z,3.90
2023-05-01T01:30:12.543Z,3.90
2023-05-01T01:31:12.549Z,3.80
2023-05-01T01:32:12.535Z,4.10
2023-05-01T01:33:12.482Z,3.60
2023-05-01T01:34:12.498Z,4.10
2023-05-01T01:35:12.468Z,4.10
2023-05-01T01:36:12.456Z,3.80
2023-05-01T01:37:12.435Z,4.20
2023-05-01T01:38:12.460Z,3.90
2023-05-01T01:39:12.418Z,3.70
2023-05-01T01:40:12.411Z,4.00
2023-05-01T01:41:12.399Z,4.10
2023-05-01T01:42:12.399Z,4.10
2023-05-01T01:43:12.404Z,4.00
2023-05-01T01:44:12.369Z,3.80
2023-05-01T01:45:12.365Z,3.90
2023-05-01T01:46:12.378Z,4.10
2023-05-01T01:47:12.329Z,3.70
2023-05-01T01:48:12.374Z,3.70
2023-05-01T01:49:12.345Z,4.40
2023-05-01T01:50:12.301Z,4.60
2023-05-01T01:51:12.310Z,4.20
2023-05-01T01:52:12.300Z,3.80
2023-05-01T01:53:12.268Z,4.10
2023-05-01T01:54:12.288Z,4.30
2023-05-01T01:55:12.249Z,4.00
2023-05-01T01:56:12.250Z,4.00
2023-05-01T01:57:12.218Z,3.90
2023-05-01T01:58:12.239Z,4.30
2023-05-01T01:59:12.249Z,4.10
2023-05-01T02:00:12.190Z,3.90
2023-05-01T02:01:12.230Z,4.10
2023-05-01T02:02:12.229Z,3.70
2023-05-01T02:03:12.272Z,4.10
2023-05-01T02:04:12.258Z,3.60
2023-05-01T02:05:12.126Z,4.10
2023-05-01T02:06:12.201Z,3.60
2023-05-01T02:07:12.108Z,4.10
2023-05-01T02:08:12.120Z,3.90
2023-05-01T02:09:12.093Z,3.60
2023-05-01T02:10:12.106Z,3.90
2023-05-01T02:11:12.103Z,3.80
2023-05-01T02:12:12.074Z,3.60
2023-05-01T02:13:12.046Z,4.40
2023-05-01T02:14:12.041Z,4.10
2023-05-01T02:15:14.363Z,3.90
2023-05-01T02:16:12.074Z,3.80
2023-05-01T02:17:12.013Z,4.10
2023-05-01T02:18:11.995Z,3.90
2023-05-01T02:19:11.979Z,4.10
2023-05-01T02:20:11.977Z,3.60
2023-05-01T02:21:12.010Z,3.60
2023-05-01T02:22:11.970Z,4.00
2023-05-01T02:23:11.974Z,3.40
2023-05-01T02:24:11.933Z,3.90
2023-05-01T02:25:12.010Z,3.90
2023-05-01T02:26:11.925Z,3.80
2023-05-01T02:27:11.919Z,4.00
2023-05-01T02:28:11.887Z,3.90
2023-05-01T02:29:11.879Z,4.10
2023-05-01T02:30:13.308Z,4.00
2023-05-01T02:31:11.880Z,3.60
2023-05-01T02:32:11.852Z,3.70
2023-05-01T02:33:11.832Z,3.50
2023-05-01T02:34:11.825Z,3.50
2023-05-01T02:35:11.854Z,4.00
2023-05-01T02:36:11.878Z,4.20
2023-05-01T02:37:11.791Z,4.10
2023-05-01T02:38:11.784Z,3.50
2023-05-01T02:39:11.769Z,4.10
2023-05-01T02:40:11.765Z,3.90
2023-05-01T02:41:11.752Z,3.70
2023-05-01T02:42:11.779Z,3.90
2023-05-01T02:43:11.781Z,4.00
2023-05-01T02:44:11.726Z,4.20
2023-05-01T02:45:11.699Z,4.00
2023-05-01T02:46:11.741Z,3.90
2023-05-01T02:47:11.798Z,3.80
2023-05-01T02:48:11.735Z,4.00
2023-05-01T02:49:11.688Z,4.30
2023-05-01T02:50:11.661Z,4.60
2023-05-01T02:51:11.687Z,4.60
2023-05-01T02:52:11.642Z,4.40
2023-05-01T02:53:11.663Z,5.70
2023-05-01T02:54:11.606Z,4.60
2023-05-01T02:55:11.593Z,4.20
2023-05-01T02:56:11.584Z,4.20
2023-05-01T02:57:11.652Z,3.80
2023-05-01T02:58:11.569Z,14.90
2023-05-01T02:59:11.567Z,5.40
2023-05-01T03:00:11.619Z,5.60
2023-05-01T03:01:11.642Z,4.90
2023-05-01T03:02:11.528Z,9.50
2023-05-01T03:03:11.548Z,8.80
2023-05-01T03:04:11.534Z,5.50
2023-05-01T03:05:11.487Z,5.00
2023-05-01T03:06:11.666Z,4.50
2023-05-01T03:07:11.460Z,3.90
2023-05-01T03:08:11.470Z,4.40
2023-05-01T03:09:11.440Z,5.30
2023-05-01T03:10:11.449Z,4.70
2023-05-01T03:11:11.485Z,4.30
2023-05-01T03:12:11.458Z,4.30
2023-05-01T03:13:11.398Z,4.60
2023-05-01T03:14:11.385Z,4.20
2023-05-01T03:15:11.375Z,4.20
2023-05-01T03:16:11.389Z,4.80
2023-05-01T03:17:11.393Z,4.40
2023-05-01T03:18:11.457Z,5.30
2023-05-01T03:19:11.321Z,5.10
2023-05-01T03:20:11.325Z,5.60
2023-05-01T03:21:11.307Z,5.00
2023-05-01T03:22:11.359Z,4.60
2023-05-01T03:23:11.284Z,3.90
2023-05-01T03:24:11.277Z,4.10
2023-05-01T03:25:11.264Z,4.70
2023-05-01T03:26:11.261Z,4.50
2023-05-01T03:27:11.266Z,4.90
2023-05-01T03:28:11.241Z,11.00
2023-05-01T03:29:11.219Z,6.70
2023-05-01T03:30:11.212Z,5.00
2023-05-01T03:31:11.195Z,5.60
2023-05-01T03:32:11.307Z,6.30
2023-05-01T03:33:11.294Z,5.00
2023-05-01T03:34:11.167Z,6.00
2023-05-01T03:35:11.224Z,4.90
2023-05-01T03:36:11.180Z,5.50
2023-05-01T03:37:11.133Z,4.90
2023-05-01T03:38:11.186Z,4.80
2023-05-01T03:39:11.838Z,4.40
2023-05-01T03:40:11.100Z,4.90
2023-05-01T03:41:11.096Z,4.80
2023-05-01T03:42:11.086Z,5.80
2023-05-01T03:43:11.076Z,5.10
2023-05-01T03:44:11.178Z,4.70
2023-05-01T03:45:11.039Z,4.10
2023-05-01T03:46:11.129Z,4.10
2023-05-01T03:47:11.089Z,3.50
2023-05-01T03:48:11.054Z,4.00
2023-05-01T03:49:10.996Z,5.00
2023-05-01T03:50:10.996Z,5.20
2023-05-01T03:51:10.983Z,4.10
2023-05-01T03:52:10.970Z,4.20
2023-05-01T03:53:10.989Z,4.40
2023-05-01T03:54:10.953Z,4.00
2023-05-01T03:55:10.934Z,4.50
2023-05-01T03:56:10.933Z,4.30
2023-05-01T03:57:10.913Z,4.30
2023-05-01T03:58:10.913Z,5.20
2023-05-01T03:59:10.942Z,4.80
2023-05-01T04:00:10.888Z,4.40
2023-05-01T04:01:10.902Z,17.70
2023-05-01T04:02:10.921Z,5.10
2023-05-01T04:03:10.964Z,4.90
2023-05-01T04:04:11.045Z,5.40
2023-05-01T04:05:10.848Z,5.20
2023-05-01T04:06:10.901Z,5.40
2023-05-01T04:07:10.843Z,5.70
2023-05-01T04:08:10.839Z,5.60
2023-05-01T04:09:10.786Z,4.90
2023-05-01T04:10:10.785Z,4.90
2023-05-01T04:11:10.757Z,4.90
2023-05-01T04:12:10.760Z,4.80
2023-05-01T04:13:10.746Z,5.10
2023-05-01T04:14:10.771Z,4.30
2023-05-01T04:15:10.719Z,4.70
2023-05-01T04:16:10.802Z,5.60
2023-05-01T04:17:10.696Z,4.70
2023-05-01T04:18:10.762Z,4.80
2023-05-01T04:19:10.685Z,4.40
2023-05-01T04:20:10.664Z,4.30
2023-05-01T04:21:10.650Z,5.00
2023-05-01T04:22:10.659Z,4.00
2023-05-01T04:23:10.635Z,4.70
2023-05-01T04:24:10.668Z,5.30
2023-05-01T04:25:10.611Z,4.30
2023-05-01T04:26:10.610Z,6.60
2023-05-01T04:27:10.603Z,5.80
2023-05-01T04:28:10.629Z,4.80
2023-05-01T04:29:10.583Z,5.30
2023-05-01T04:30:10.559Z,5.00
2023-05-01T04:31:10.590Z,5.60
2023-05-01T04:32:10.534Z,5.20
2023-05-01T04:33:10.635Z,5.90
2023-05-01T04:34:10.592Z,6.30
2023-05-01T04:35:10.505Z,5.00
2023-05-01T04:36:10.490Z,4.60
2023-05-01T04:37:10.483Z,4.40
2023-05-01T04:38:10.628Z,4.40
2023-05-01T04:39:10.461Z,5.30
2023-05-01T04:40:11.672Z,5.00
2023-05-01T04:41:10.425Z,6.80
2023-05-01T04:42:10.466Z,5.10
2023-05-01T04:43:10.408Z,4.50
2023-05-01T04:44:10.410Z,4.70
2023-05-01T04:45:10.384Z,4.70
2023-05-01T04:46:10.442Z,4.10
2023-05-01T04:47:10.438Z,4.60
2023-05-01T04:48:10.593Z,4.20
2023-05-01T04:49:10.353Z,4.40
2023-05-01T04:50:11.453Z,4.30
2023-05-01T04:51:10.322Z,4.10
2023-05-01T04:52:10.314Z,4.20
2023-05-01T04:53:10.296Z,4.40
2023-05-01T04:54:10.286Z,3.90
2023-05-01T04:55:13.479Z,12.80
2023-05-01T04:56:10.282Z,6.20
2023-05-01T04:57:10.265Z,4.80
2023-05-01T04:58:10.273Z,5.40
2023-05-01T04:59:10.277Z,11.50
2023-05-01T05:00:10.229Z,6.70
2023-05-01T05:01:10.239Z,4.20
2023-05-01T05:02:10.276Z,5.20
2023-05-01T05:03:10.282Z,4.50
2023-05-01T05:04:10.204Z,4.50
2023-05-01T05:05:10.224Z,5.80
2023-05-01T05:06:10.179Z,5.10
2023-05-01T05:07:10.168Z,5.30
2023-05-01T05:08:10.150Z,5.10
2023-05-01T05:09:10.134Z,5.50
2023-05-01T05:10:10.211Z,5.30
2023-05-01T05:11:10.134Z,5.10
2023-05-01T05:12:10.100Z,4.60
2023-05-01T05:13:10.111Z,5.00
2023-05-01T05:14:10.095Z,4.70
2023-05-01T05:15:10.078Z,4.60
2023-05-01T05:16:10.102Z,4.50
2023-05-01T05:17:10.104Z,5.30
2023-05-01T05:18:10.085Z,5.00
2023-05-01T05:19:10.026Z,4.40
2023-05-01T05:20:10.041Z,4.70
2023-05-01T05:21:10.004Z,12.60
2023-05-01T05:22:09.982Z,10.00
2023-05-01T05:23:10.973Z,6.00
2023-05-01T05:24:10.007Z,10.20
2023-05-01T05:25:09.962Z,5.60
2023-05-01T05:26:09.941Z,5.10
2023-05-01T05:27:09.931Z,8.90
2023-05-01T05:28:09.929Z,5.90
2023-05-01T05:29:09.926Z,5.80
2023-05-01T05:30:09.984Z,5.40
2023-05-01T05:31:09.895Z,5.70
2023-05-01T05:32:09.958Z,5.90
2023-05-01T05:33:09.922Z,6.10
2023-05-01T05:34:09.857Z,5.90
2023-05-01T05:35:09.850Z,5.40
2023-05-01T05:36:09.938Z,5.90
2023-05-01T05:37:09.840Z,6.60
2023-05-01T05:38:09.819Z,6.00
2023-05-01T05:39:09.930Z,10.90
2023-05-01T05:40:09.796Z,10.60
2023-05-01T05:41:09.793Z,8.70
2023-05-01T05:42:09.804Z,9.00
2023-05-01T05:43:09.772Z,8.30
2023-05-01T05:44:09.744Z,7.40
2023-05-01T05:45:09.743Z,6.50
2023-05-01T05:46:09.781Z,6.50
2023-05-01T05:47:09.809Z,7.50
2023-05-01T05:48:09.713Z,5.50
2023-05-01T05:49:09.741Z,9.10
2023-05-01T05:50:09.691Z,5.70
2023-05-01T05:51:09.691Z,5.90
2023-05-01T05:52:09.731Z,5.60
2023-05-01T05:53:09.782Z,5.70
2023-05-01T05:54:09.639Z,5.10
2023-05-01T05:55:09.756Z,5.40
2023-05-01T05:56:09.650Z,5.30
2023-05-01T05:57:09.613Z,5.00
2023-05-01T05:58:09.599Z,26.40
2023-05-01T05:59:09.594Z,16.70
2023-05-01T06:00:09.576Z,5.90
2023-05-01T06:01:09.606Z,6.80
2023-05-01T06:02:09.596Z,6.50
2023-05-01T06:03:09.670Z,5.60
2023-05-01T06:04:09.557Z,6.10
2023-05-01T06:05:09.574Z,8.30
2023-05-01T06:06:09.858Z,5.10
2023-05-01T06:07:09.546Z,5.80
2023-05-01T06:08:09.489Z,6.00
2023-05-01T06:09:09.488Z,5.20
2023-05-01T06:10:09.547Z,5.40
2023-05-01T06:11:09.508Z,5.60
2023-05-01T06:12:09.446Z,5.60
2023-05-01T06:13:13.518Z,5.40
2023-05-01T06:14:10.460Z,5.30
2023-05-01T06:15:09.419Z,5.30
2023-05-01T06:16:09.445Z,5.20
2023-05-01T06:17:09.408Z,5.70
2023-05-01T06:18:09.470Z,5.40
2023-05-01T06:19:09.439Z,5.80
2023-05-01T06:20:09.372Z,4.90
2023-05-01T06:21:09.354Z,5.40
2023-05-01T06:22:09.352Z,5.00
2023-05-01T06:23:10.091Z,5.90
2023-05-01T06:24:10.078Z,5.20
2023-05-01T06:25:09.318Z,5.20
2023-05-01T06:26:09.291Z,5.60
2023-05-01T06:27:09.295Z,18.40
2023-05-01T06:28:09.274Z,9.00
2023-05-01T06:29:09.297Z,5.70
2023-05-01T06:30:09.382Z,14.30
2023-05-01T06:31:09.297Z,9.00
2023-05-01T06:32:09.230Z,7.10
2023-05-01T06:33:09.249Z,6.30
2023-05-01T06:34:09.228Z,6.30
2023-05-01T06:35:09.737Z,5.60
2023-05-01T06:36:09.218Z,5.60
2023-05-01T06:37:10.678Z,6.00
2023-05-01T06:38:09.204Z,5.70
2023-05-01T06:39:09.173Z,5.30
2023-05-01T06:40:09.167Z,5.90
2023-05-01T06:41:09.161Z,5.70
2023-05-01T06:42:09.117Z,6.00
2023-05-01T06:43:09.149Z,5.60
2023-05-01T06:44:09.148Z,5.30
2023-05-01T06:45:09.097Z,6.20
2023-05-01T06:46:09.177Z,5.50
2023-05-01T06:47:09.135Z,5.20
2023-05-01T06:48:09.119Z,5.40
2023-05-01T06:49:09.037Z,5.60
2023-05-01T06:50:11.775Z,5.80
2023-05-01T06:51:09.021Z,5.40
2023-05-01T06:52:09.008Z,5.70
2023-05-01T06:53:09.007Z,5.50
2023-05-01T06:54:09.034Z,5.70
2023-05-01T06:55:09.039Z,5.90
2023-05-01T06:56:08.997Z,5.00
2023-05-01T06:57:08.954Z,5.40
2023-05-01T06:58:22.354Z,5.00
2023-05-01T06:59:09.951Z,9.30
2023-05-01T07:00:08.920Z,9.50
2023-05-01T07:01:08.983Z,7.40
2023-05-01T07:02:08.942Z,5.80
2023-05-01T07:03:08.932Z,7.40
2023-05-01T07:04:08.976Z,9.60
2023-05-01T07:05:08.883Z,8.10
2023-05-01T07:06:08.883Z,7.60
2023-05-01T07:07:08.842Z,8.30
2023-05-01T07:08:08.860Z,5.70
2023-05-01T07:09:08.821Z,7.90
2023-05-01T07:10:08.822Z,7.10
2023-05-01T07:11:09.239Z,8.20
2023-05-01T07:12:08.800Z,7.80
2023-05-01T07:13:08.785Z,6.00
2023-05-01T07:14:08.767Z,5.60
2023-05-01T07:15:08.765Z,5.60
2023-05-01T07:16:10.989Z,6.10
2023-05-01T07:17:08.751Z,6.00
2023-05-01T07:18:08.920Z,5.20
2023-05-01T07:19:09.014Z,5.50
2023-05-01T07:20:08.708Z,5.60
2023-05-01T07:21:08.695Z,5.10
2023-05-01T07:22:08.680Z,5.60
2023-05-01T07:23:08.728Z,5.50
2023-05-01T07:24:08.703Z,6.00
2023-05-01T07:25:08.688Z,4.90
2023-05-01T07:26:08.686Z,5.20
2023-05-01T07:27:08.626Z,4.70
2023-05-01T07:28:08.653Z,4.70
2023-05-01T07:29:08.618Z,4.90
2023-05-01T07:30:10.471Z,7.40
2023-05-01T07:31:08.599Z,6.00
2023-05-01T07:32:08.631Z,6.50
2023-05-01T07:33:08.584Z,7.20
2023-05-01T07:34:08.615Z,5.50
2023-05-01T07:35:08.547Z,6.40
2023-05-01T07:36:08.533Z,6.00
2023-05-01T07:37:08.531Z,5.20
2023-05-01T07:38:08.502Z,5.10
2023-05-01T07:39:08.498Z,5.10
2023-05-01T07:40:09.625Z,5.80
2023-05-01T07:41:08.479Z,6.40
2023-05-01T07:42:08.465Z,5.50
2023-05-01T07:43:08.454Z,5.50
2023-05-01T07:44:08.453Z,6.40
2023-05-01T07:45:08.502Z,6.80
2023-05-01T07:46:08.459Z,4.80
2023-05-01T07:47:08.414Z,5.00
2023-05-01T07:48:08.721Z,4.20
2023-05-01T07:49:08.392Z,4.60
2023-05-01T07:50:08.368Z,4.50
2023-05-01T07:51:08.435Z,4.90
2023-05-01T07:52:08.353Z,4.80
2023-05-01T07:53:08.422Z,4.40
2023-05-01T07:54:08.337Z,4.70
2023-05-01T07:55:08.338Z,4.90
2023-05-01T07:56:09.083Z,4.60
2023-05-01T07:57:08.300Z,4.40
2023-05-01T07:58:08.289Z,4.60
2023-05-01T07:59:08.283Z,4.60
2023-05-01T08:00:08.294Z,4.40
2023-05-01T08:01:08.258Z,4.90
2023-05-01T08:02:08.312Z,4.90
2023-05-01T08:03:08.461Z,4.30
2023-05-01T08:04:08.308Z,8.50
2023-05-01T08:05:08.279Z,5.70
2023-05-01T08:06:09.192Z,5.60
2023-05-01T08:07:08.241Z,4.90
2023-05-01T08:08:08.195Z,4.70
2023-05-01T08:09:08.188Z,5.10
2023-05-01T08:10:08.159Z,4.60
2023-05-01T08:11:08.519Z,4.30
2023-05-01T08:12:08.140Z,3.80
2023-05-01T08:13:08.158Z,7.50
2023-05-01T08:14:08.133Z,13.10
2023-05-01T08:15:09.206Z,11.20
2023-05-01T08:16:08.272Z,8.10
2023-05-01T08:17:08.117Z,6.10
2023-05-01T08:18:08.384Z,5.80
2023-05-01T08:19:08.104Z,3.80
2023-05-01T08:20:08.091Z,3.70
2023-05-01T08:21:08.074Z,4.60
2023-05-01T08:22:08.026Z,3.80
2023-05-01T08:23:08.024Z,4.00
2023-05-01T08:24:08.019Z,3.10
2023-05-01T08:25:08.065Z,3.40
2023-05-01T08:26:08.100Z,3.60
2023-05-01T08:27:07.976Z,3.20
2023-05-01T08:28:07.986Z,2.80
2023-05-01T08:29:07.953Z,3.10
2023-05-01T08:30:07.952Z,2.90
2023-05-01T08:31:07.970Z,2.90
2023-05-01T08:32:07.971Z,2.90
2023-05-01T08:33:07.971Z,3.10
2023-05-01T08:34:07.898Z,4.70
2023-05-01T08:35:07.904Z,5.30
2023-05-01T08:36:07.913Z,3.10
2023-05-01T08:37:07.959Z,3.40
2023-05-01T08:38:07.866Z,2.80
2023-05-01T08:39:07.864Z,4.00
2023-05-01T08:40:11.050Z,2.80
2023-05-01T08:41:07.824Z,3.20
2023-05-01T08:42:07.822Z,3.20
2023-05-01T08:43:07.921Z,2.70
2023-05-01T08:44:07.806Z,3.00
2023-05-01T08:45:07.793Z,2.70
2023-05-01T08:46:09.930Z,2.60
2023-05-01T08:47:07.961Z,2.40
2023-05-01T08:48:07.846Z,2.20
2023-05-01T08:49:07.761Z,2.60
2023-05-01T08:50:07.725Z,2.50
2023-05-01T08:51:07.728Z,2.30
2023-05-01T08:52:07.710Z,2.40
2023-05-01T08:53:07.698Z,2.20
2023-05-01T08:54:07.956Z,2.60
2023-05-01T08:55:07.675Z,2.40
2023-05-01T08:56:07.677Z,2.50
2023-05-01T08:57:10.145Z,2.30
2023-05-01T08:58:07.654Z,2.00
2023-05-01T08:59:07.620Z,2.30
2023-05-01T09:00:11.006Z,2.10
2023-05-01T09:01:07.681Z,2.00
2023-05-01T09:02:07.733Z,2.00
2023-05-01T09:03:07.734Z,2.50
2023-05-01T09:04:07.967Z,2.10
2023-05-01T09:05:07.571Z,2.70
2023-05-01T09:06:09.579Z,2.20
2023-05-01T09:07:07.580Z,2.20
2023-05-01T09:08:07.521Z,2.30
2023-05-01T09:09:07.521Z,2.60
2023-05-01T09:10:07.500Z,2.00
2023-05-01T09:11:07.489Z,2.40
2023-05-01T09:12:07.504Z,2.40
2023-05-01T09:13:07.603Z,2.40
2023-05-01T09:14:07.523Z,2.70
2023-05-01T09:15:07.456Z,2.80
2023-05-01T09:16:07.461Z,2.30
2023-05-01T09:17:07.423Z,2.30
2023-05-01T09:18:07.530Z,2.30
2023-05-01T09:19:07.424Z,2.20
2023-05-01T09:20:07.521Z,2.20
2023-05-01T09:21:07.389Z,2.50
2023-05-01T09:22:09.167Z,2.10
2023-05-01T09:23:07.389Z,2.20
2023-05-01T09:24:07.416Z,2.40
2023-05-01T09:25:07.342Z,2.30
2023-05-01T09:26:07.339Z,2.20
2023-05-01T09:27:07.320Z,2.30
2023-05-01T09:28:07.334Z,2.30
2023-05-01T09:29:07.337Z,2.20
2023-05-01T09:30:07.285Z,2.50
2023-05-01T09:31:07.282Z,2.30
2023-05-01T09:32:07.291Z,2.10
2023-05-01T09:33:07.324Z,2.40
2023-05-01T09:34:07.689Z,2.10
2023-05-01T09:35:07.272Z,2.50
2023-05-01T09:36:07.230Z,2.50
2023-05-01T09:37:07.240Z,2.60
2023-05-01T09:38:07.207Z,2.20
2023-05-01T09:39:07.189Z,2.40
2023-05-01T09:40:07.208Z,2.30
2023-05-01T09:41:07.170Z,2.70
2023-05-01T09:42:09.205Z,2.20
2023-05-01T09:43:07.161Z,2.10
2023-05-01T09:44:07.138Z,2.40
2023-05-01T09:45:07.116Z,2.30
2023-05-01T09:46:07.258Z,2.60
2023-05-01T09:47:07.106Z,2.30
2023-05-01T09:48:07.608Z,2.70
2023-05-01T09:49:07.084Z,2.70
2023-05-01T09:50:07.076Z,2.50
2023-05-01T09:51:07.084Z,2.60
2023-05-01T09:52:07.089Z,2.60
2023-05-01T09:53:07.044Z,2.30
2023-05-01T09:54:07.072Z,2.10
2023-05-01T09:55:07.020Z,2.80
2023-05-01T09:56:07.113Z,2.70
2023-05-01T09:57:07.005Z,2.60
2023-05-01T09:58:07.052Z,2.40
2023-05-01T10:00:07.020Z,2.80
2023-05-01T10:01:06.995Z,2.70
2023-05-01T10:02:07.057Z,2.50
2023-05-01T10:03:08.542Z,2.10
2023-05-01T10:04:07.224Z,2.40
2023-05-01T10:05:06.908Z,2.60
2023-05-01T10:06:09.124Z,2.70
2023-05-01T10:07:07.151Z,3.00
2023-05-01T10:08:06.876Z,3.10
2023-05-01T10:09:06.895Z,2.50
2023-05-01T10:10:06.861Z,3.00
2023-05-01T10:11:07.982Z,3.10
2023-05-01T10:12:06.839Z,2.80
2023-05-01T10:13:06.870Z,3.00
2023-05-01T10:14:06.827Z,3.40
2023-05-01T10:15:17.382Z,2.80
2023-05-01T10:16:07.803Z,2.90
2023-05-01T10:17:06.844Z,2.70
2023-05-01T10:18:06.892Z,2.30
2023-05-01T10:19:06.758Z,2.30
2023-05-01T10:20:06.764Z,2.50
2023-05-01T10:21:06.743Z,2.40
2023-05-01T10:22:06.763Z,2.50
2023-05-01T10:23:06.723Z,2.30
2023-05-01T10:24:07.130Z,2.50
2023-05-01T10:25:06.695Z,2.40
2023-05-01T10:26:07.192Z,2.20
2023-05-01T10:27:06.673Z,2.70
2023-05-01T10:28:06.674Z,2.50
2023-05-01T10:29:08.837Z,2.40
2023-05-01T10:30:06.659Z,2.50
2023-05-01T10:31:06.683Z,2.20
2023-05-01T10:32:06.698Z,2.00
2023-05-01T10:33:06.620Z,2.10
2023-05-01T10:34:06.628Z,2.00
2023-05-01T10:35:06.651Z,2.20
2023-05-01T10:36:06.670Z,2.00
2023-05-01T10:37:06.589Z,2.10
2023-05-01T10:38:06.563Z,2.00
2023-05-01T10:39:06.537Z,2.20
2023-05-01T10:40:06.545Z,2.10
2023-05-01T10:41:06.531Z,2.00
2023-05-01T10:42:06.938Z,1.80
2023-05-01T10:43:06.499Z,2.40
2023-05-01T10:44:06.516Z,2.00
2023-05-01T10:45:06.476Z,2.00
2023-05-01T10:46:06.492Z,2.10
2023-05-01T10:47:06.467Z,2.20
2023-05-01T10:48:06.616Z,2.00
2023-05-01T10:49:06.435Z,1.90
2023-05-01T10:50:06.439Z,1.90
2023-05-01T10:51:06.490Z,2.00
2023-05-01T10:52:06.407Z,2.20
2023-05-01T10:53:06.411Z,2.40
2023-05-01T10:54:06.409Z,2.60
2023-05-01T10:55:06.377Z,2.00
2023-05-01T10:56:06.356Z,2.20
2023-05-01T10:57:11.162Z,2.30
2023-05-01T10:58:06.340Z,2.20
2023-05-01T10:59:06.325Z,2.20
2023-05-01T11:00:06.316Z,2.10
2023-05-01T11:01:06.347Z,2.00
2023-05-01T11:02:06.349Z,2.40
2023-05-01T11:03:06.359Z,1.80
2023-05-01T11:04:06.284Z,1.90
2023-05-01T11:05:06.354Z,1.90
2023-05-01T11:06:06.374Z,2.10
2023-05-01T11:07:06.483Z,2.00
2023-05-01T11:08:06.228Z,2.00
2023-05-01T11:09:06.216Z,2.00
2023-05-01T11:10:06.668Z,2.00
2023-05-01T11:11:06.192Z,2.00
2023-05-01T11:12:06.223Z,1.90
2023-05-01T11:13:06.180Z,1.80
2023-05-01T11:14:06.170Z,2.20
2023-05-01T11:15:06.153Z,1.80
2023-05-01T11:16:06.160Z,1.70
2023-05-01T11:17:08.485Z,1.90
2023-05-01T11:18:06.317Z,1.70
2023-05-01T11:19:06.116Z,1.90
2023-05-01T11:20:06.103Z,1.80
2023-05-01T11:21:06.088Z,1.70
2023-05-01T11:22:06.274Z,1.60
2023-05-01T11:23:06.061Z,1.90
2023-05-01T11:24:06.062Z,1.60
2023-05-01T11:25:06.110Z,1.80
2023-05-01T11:26:06.052Z,1.60
2023-05-01T11:27:06.021Z,1.50
2023-05-01T11:28:06.023Z,1.40
2023-05-01T11:29:06.000Z,1.50
2023-05-01T11:30:06.010Z,1.50
2023-05-01T11:31:06.150Z,1.40
2023-05-01T11:32:05.992Z,2.00
2023-05-01T11:33:07.145Z,1.70
2023-05-01T11:34:05.974Z,1.60
2023-05-01T11:35:06.009Z,1.70
2023-05-01T11:36:05.936Z,1.50
2023-05-01T11:37:05.915Z,1.80
2023-05-01T11:38:07.385Z,1.70
2023-05-01T11:39:05.948Z,1.50
2023-05-01T11:40:05.927Z,1.60
2023-05-01T11:41:05.880Z,1.50
2023-05-01T11:42:05.966Z,1.50
2023-05-01T11:43:05.841Z,1.70
2023-05-01T11:44:05.884Z,1.50
2023-05-01T11:45:07.572Z,1.60
2023-05-01T11:46:05.860Z,1.90
2023-05-01T11:47:05.797Z,1.90
2023-05-01T11:48:05.866Z,1.70
2023-05-01T11:49:05.786Z,1.60
2023-05-01T11:50:05.806Z,1.70
2023-05-01T11:51:05.760Z,2.00
2023-05-01T11:52:05.757Z,1.70
2023-05-01T11:53:05.744Z,1.40
2023-05-01T11:54:05.839Z,1.20
2023-05-01T11:55:05.860Z,1.20
2023-05-01T11:56:10.888Z,1.10
2023-05-01T11:57:06.695Z,1.50
2023-05-01T11:58:05.696Z,1.20
2023-05-01T11:59:05.670Z,1.30
2023-05-01T12:00:06.558Z,1.20
2023-05-01T12:01:07.582Z,1.20
2023-05-01T12:02:05.719Z,1.50
2023-05-01T12:03:05.820Z,1.10
2023-05-01T12:04:05.755Z,2.20
2023-05-01T12:05:07.909Z,5.70
2023-05-01T12:06:05.795Z,2.60
2023-05-01T12:07:07.340Z,2.10
2023-05-01T12:08:05.574Z,1.60
2023-05-01T12:09:05.881Z,1.30
2023-05-01T12:10:05.576Z,1.50
2023-05-01T12:11:05.546Z,1.30
2023-05-01T12:12:05.603Z,1.40
2023-05-01T12:13:05.556Z,1.20
2023-05-01T12:14:05.509Z,1.10
2023-05-01T12:15:05.502Z,1.00
2023-05-01T12:16:05.536Z,1.10
2023-05-01T12:17:05.555Z,1.10
2023-05-01T12:18:05.497Z,1.20
2023-05-01T12:19:05.448Z,1.20
2023-05-01T12:20:05.517Z,1.20
2023-05-01T12:21:05.467Z,1.10
2023-05-01T12:22:05.592Z,1.00
2023-05-01T12:23:05.454Z,1.30
2023-05-01T12:24:05.409Z,1.40
2023-05-01T12:25:05.393Z,1.50
2023-05-01T12:26:05.394Z,1.10
2023-05-01T12:27:05.375Z,1.30
2023-05-01T12:28:05.899Z,1.60
2023-05-01T12:29:05.387Z,1.30
2023-05-01T12:30:05.423Z,1.30
2023-05-01T12:31:05.664Z,1.30
2023-05-01T12:32:05.440Z,1.80
2023-05-01T12:33:05.322Z,1.40
2023-05-01T12:34:05.292Z,1.00
2023-05-01T12:35:05.282Z,1.20
2023-05-01T12:36:05.301Z,1.20
2023-05-01T12:37:05.947Z,1.50
2023-05-01T12:38:05.253Z,1.50
2023-05-01T12:39:05.279Z,1.60
2023-05-01T12:40:05.223Z,1.30
2023-05-01T12:41:05.213Z,1.60
2023-05-01T12:42:05.245Z,2.00
2023-05-01T12:43:05.186Z,2.30
2023-05-01T12:44:05.178Z,1.50
2023-05-01T12:45:05.225Z,1.40
2023-05-01T12:46:05.178Z,1.20
2023-05-01T12:47:05.153Z,1.50
2023-05-01T12:48:05.169Z,1.30
2023-05-01T12:49:05.147Z,1.20
2023-05-01T12:50:05.128Z,1.20
2023-05-01T12:51:05.132Z,1.20
2023-05-01T12:52:05.206Z,1.30
2023-05-01T12:53:05.083Z,1.20
2023-05-01T12:54:05.132Z,1.10
2023-05-01T12:55:05.062Z,1.00
2023-05-01T12:56:05.046Z,1.00
2023-05-01T12:57:05.039Z,1.20
2023-05-01T12:58:05.035Z,1.00
2023-05-01T12:59:05.011Z,1.30
2023-05-01T13:00:07.913Z,1.30
2023-05-01T13:01:05.003Z,1.30
2023-05-01T13:02:05.042Z,1.30
2023-05-01T13:03:05.114Z,1.10
2023-05-01T13:04:05.059Z,1.20
2023-05-01T13:05:04.942Z,1.10
2023-05-01T13:06:05.018Z,1.30
2023-05-01T13:07:04.924Z,1.20
2023-05-01T13:08:04.913Z,1.50
2023-05-01T13:09:04.893Z,1.20
2023-05-01T13:10:09.662Z,1.30
2023-05-01T13:11:04.874Z,1.30
2023-05-01T13:12:04.869Z,1.60
2023-05-01T13:13:04.853Z,1.60
2023-05-01T13:14:04.851Z,1.60
2023-05-01T13:15:04.925Z,1.80
2023-05-01T13:16:04.881Z,1.60
2023-05-01T13:17:05.856Z,1.60
2023-05-01T13:18:04.878Z,1.60